Donalds, South Carolina
Current Conditions -  °F | °C
As of 10:56 AM on Saturday 20 Dec 2014 (Local Time) from KGRD Reporting Station
Haze Haze  
Wind Chill: 42°   Ceiling: 500
Heat Index: 44°   Visibility: 6mi
Dew Point: 42°   Wind: 5mph
Humidity: 93%   Direction: NA
Pressure: 30.25"   Gusts: NA
Location:  34.38°N, 82.35°W
Report Text: KGRD 201556Z AUTO VRB04KT 6SM BR BKN005 OVC016 07/06 A3025 RMK AO2 RAE20 SLP244 P0000 T00670056
Loading
Personal Weather Stations






























Interactive Weather Map New forecast layout! Learn more

10-Day Weather Forecast

Advertisements
Track Severe Weather on mobile